sensor_id;sensor_type;location;lat;lon;timestamp;P1;durP1;ratioP1;P2;durP2;ratioP2
18576;SDS011;9418;52.694;13.294;2023-02-15T00:00:25;25.33;;;19.63;;
18576;SDS011;9418;52.694;13.294;2023-02-15T00:02:51;29.70;;;21.10;;
18576;SDS011;9418;52.694;13.294;2023-02-15T00:05:19;28.97;;;21.13;;
18576;SDS011;9418;52.694;13.294;2023-02-15T00:07:46;25.60;;;20.23;;
18576;SDS011;9418;52.694;13.294;2023-02-15T00:10:12;29.23;;;21.90;;
18576;SDS011;9418;52.694;13.294;2023-02-15T00:12:39;27.73;;;20.83;;
18576;SDS011;9418;52.694;13.294;2023-02-15T00:15:06;30.33;;;20.60;;
18576;SDS011;9418;52.694;13.294;2023-02-15T00:17:33;28.60;;;20.60;;
18576;SDS011;9418;52.694;13.294;2023-02-15T00:19:59;32.30;;;22.50;;
18576;SDS011;9418;52.694;13.294;2023-02-15T00:22:27;34.43;;;20.57;;
18576;SDS011;9418;52.694;13.294;2023-02-15T00:24:54;31.90;;;21.87;;
18576;SDS011;9418;52.694;13.294;2023-02-15T00:27:20;28.73;;;20.20;;
18576;SDS011;9418;52.694;13.294;2023-02-15T00:29:47;30.50;;;21.23;;
18576;SDS011;9418;52.694;13.294;2023-02-15T00:32:13;28.57;;;21.00;;
18576;SDS011;9418;52.694;13.294;2023-02-15T00:34:40;30.63;;;21.80;;
18576;SDS011;9418;52.694;13.294;2023-02-15T00:37:06;27.90;;;21.13;;
18576;SDS011;9418;52.694;13.294;2023-02-15T00:39:34;31.80;;;21.40;;
18576;SDS011;9418;52.694;13.294;2023-02-15T00:42:01;31.23;;;22.83;;
18576;SDS011;9418;52.694;13.294;2023-02-15T00:44:27;27.80;;;20.27;;
18576;SDS011;9418;52.694;13.294;2023-02-15T00:46:54;32.97;;;23.07;;
18576;SDS011;9418;52.694;13.294;2023-02-15T00:49:20;30.27;;;21.40;;
18576;SDS011;9418;52.694;13.294;2023-02-15T00:51:47;30.67;;;22.70;;
18576;SDS011;9418;52.694;13.294;2023-02-15T00:54:13;29.37;;;21.23;;
18576;SDS011;9418;52.694;13.294;2023-02-15T00:56:41;28.97;;;20.00;;
18576;SDS011;9418;52.694;13.294;2023-02-15T00:59:08;29.70;;;21.27;;
18576;SDS011;9418;52.694;13.294;2023-02-15T01:01:35;31.33;;;22.40;;
18576;SDS011;9418;52.694;13.294;2023-02-15T01:04:01;26.43;;;20.13;;
18576;SDS011;9418;52.694;13.294;2023-02-15T01:06:28;26.77;;;21.33;;
18576;SDS011;9418;52.694;13.294;2023-02-15T01:08:54;32.87;;;22.47;;
18576;SDS011;9418;52.694;13.294;2023-02-15T01:11:21;29.30;;;21.80;;
18576;SDS011;9418;52.694;13.294;2023-02-15T01:13:50;27.83;;;21.83;;
18576;SDS011;9418;52.694;13.294;2023-02-15T01:16:17;30.87;;;22.00;;
18576;SDS011;9418;52.694;13.294;2023-02-15T01:18:44;28.27;;;21.33;;
18576;SDS011;9418;52.694;13.294;2023-02-15T01:21:11;30.13;;;20.53;;
18576;SDS011;9418;52.694;13.294;2023-02-15T01:23:38;28.03;;;21.07;;
18576;SDS011;9418;52.694;13.294;2023-02-15T01:26:05;27.13;;;20.67;;
18576;SDS011;9418;52.694;13.294;2023-02-15T01:28:32;26.30;;;20.77;;
18576;SDS011;9418;52.694;13.294;2023-02-15T01:31:03;27.17;;;20.70;;
18576;SDS011;9418;52.694;13.294;2023-02-15T01:33:30;29.17;;;20.93;;
18576;SDS011;9418;52.694;13.294;2023-02-15T01:35:57;30.20;;;22.60;;
18576;SDS011;9418;52.694;13.294;2023-02-15T01:38:24;30.27;;;21.80;;
18576;SDS011;9418;52.694;13.294;2023-02-15T01:40:50;33.43;;;21.00;;
18576;SDS011;9418;52.694;13.294;2023-02-15T01:43:17;29.90;;;21.83;;
18576;SDS011;9418;52.694;13.294;2023-02-15T01:45:44;30.30;;;21.00;;
18576;SDS011;9418;52.694;13.294;2023-02-15T01:48:17;25.03;;;20.50;;
18576;SDS011;9418;52.694;13.294;2023-02-15T01:50:47;27.67;;;20.50;;
18576;SDS011;9418;52.694;13.294;2023-02-15T01:53:18;26.57;;;19.57;;
18576;SDS011;9418;52.694;13.294;2023-02-15T01:55:50;29.77;;;20.73;;
18576;SDS011;9418;52.694;13.294;2023-02-15T01:58:19;29.40;;;22.50;;
18576;SDS011;9418;52.694;13.294;2023-02-15T02:00:47;28.50;;;20.83;;
18576;SDS011;9418;52.694;13.294;2023-02-15T02:03:13;25.40;;;19.40;;
18576;SDS011;9418;52.694;13.294;2023-02-15T02:05:42;27.27;;;20.87;;
18576;SDS011;9418;52.694;13.294;2023-02-15T02:08:09;32.57;;;21.53;;
18576;SDS011;9418;52.694;13.294;2023-02-15T02:10:36;29.23;;;20.50;;
18576;SDS011;9418;52.694;13.294;2023-02-15T02:13:03;32.10;;;21.13;;
18576;SDS011;9418;52.694;13.294;2023-02-15T02:15:33;25.13;;;20.37;;
18576;SDS011;9418;52.694;13.294;2023-02-15T02:18:10;28.03;;;20.27;;
18576;SDS011;9418;52.694;13.294;2023-02-15T02:20:59;27.47;;;20.97;;
18576;SDS011;9418;52.694;13.294;2023-02-15T02:23:47;24.83;;;18.77;;
18576;SDS011;9418;52.694;13.294;2023-02-15T02:26:36;28.00;;;21.17;;
18576;SDS011;9418;52.694;13.294;2023-02-15T02:29:40;29.50;;;21.73;;
18576;SDS011;9418;52.694;13.294;2023-02-15T02:35:29;29.10;;;20.70;;
18576;SDS011;9418;52.694;13.294;2023-02-15T02:38:00;26.27;;;20.00;;
18576;SDS011;9418;52.694;13.294;2023-02-15T02:40:37;27.57;;;20.40;;
18576;SDS011;9418;52.694;13.294;2023-02-15T02:43:13;27.67;;;21.13;;
18576;SDS011;9418;52.694;13.294;2023-02-15T02:45:45;27.10;;;20.67;;
18576;SDS011;9418;52.694;13.294;2023-02-15T02:48:19;27.07;;;20.33;;
18576;SDS011;9418;52.694;13.294;2023-02-15T02:50:49;28.47;;;20.10;;
18576;SDS011;9418;52.694;13.294;2023-02-15T02:53:16;27.70;;;21.00;;
18576;SDS011;9418;52.694;13.294;2023-02-15T02:55:43;34.30;;;23.00;;
18576;SDS011;9418;52.694;13.294;2023-02-15T02:58:14;29.60;;;21.97;;
18576;SDS011;9418;52.694;13.294;2023-02-15T03:00:45;30.87;;;21.70;;
18576;SDS011;9418;52.694;13.294;2023-02-15T03:03:15;30.73;;;22.90;;
18576;SDS011;9418;52.694;13.294;2023-02-15T03:05:47;31.30;;;22.50;;
18576;SDS011;9418;52.694;13.294;2023-02-15T03:08:19;32.03;;;23.70;;
18576;SDS011;9418;52.694;13.294;2023-02-15T03:10:48;29.60;;;22.80;;
18576;SDS011;9418;52.694;13.294;2023-02-15T03:13:19;29.53;;;21.40;;
18576;SDS011;9418;52.694;13.294;2023-02-15T03:15:46;28.80;;;22.33;;
18576;SDS011;9418;52.694;13.294;2023-02-15T03:18:33;31.77;;;22.63;;
18576;SDS011;9418;52.694;13.294;2023-02-15T03:21:05;29.97;;;22.53;;
18576;SDS011;9418;52.694;13.294;2023-02-15T03:23:33;27.10;;;21.63;;
18576;SDS011;9418;52.694;13.294;2023-02-15T03:26:02;27.90;;;21.70;;
18576;SDS011;9418;52.694;13.294;2023-02-15T03:28:32;28.03;;;21.73;;
18576;SDS011;9418;52.694;13.294;2023-02-15T03:31:02;32.47;;;21.53;;
18576;SDS011;9418;52.694;13.294;2023-02-15T03:33:31;26.60;;;21.00;;
18576;SDS011;9418;52.694;13.294;2023-02-15T03:36:01;30.60;;;22.67;;
18576;SDS011;9418;52.694;13.294;2023-02-15T03:38:36;29.83;;;21.63;;
18576;SDS011;9418;52.694;13.294;2023-02-15T03:41:10;29.20;;;21.43;;
18576;SDS011;9418;52.694;13.294;2023-02-15T03:43:40;33.90;;;21.57;;
18576;SDS011;9418;52.694;13.294;2023-02-15T03:46:15;27.90;;;20.70;;
18576;SDS011;9418;52.694;13.294;2023-02-15T03:48:49;31.47;;;23.00;;
18576;SDS011;9418;52.694;13.294;2023-02-15T03:51:21;29.70;;;21.70;;
18576;SDS011;9418;52.694;13.294;2023-02-15T03:53:58;28.93;;;22.33;;
18576;SDS011;9418;52.694;13.294;2023-02-15T03:56:27;29.90;;;22.13;;
18576;SDS011;9418;52.694;13.294;2023-02-15T03:58:54;35.83;;;23.80;;
18576;SDS011;9418;52.694;13.294;2023-02-15T04:01:39;29.13;;;21.60;;
18576;SDS011;9418;52.694;13.294;2023-02-15T04:04:32;35.80;;;23.87;;
18576;SDS011;9418;52.694;13.294;2023-02-15T04:07:02;32.97;;;22.40;;
18576;SDS011;9418;52.694;13.294;2023-02-15T04:09:30;28.43;;;22.33;;
18576;SDS011;9418;52.694;13.294;2023-02-15T04:12:15;32.00;;;23.60;;
18576;SDS011;9418;52.694;13.294;2023-02-15T04:14:41;26.33;;;20.83;;
18576;SDS011;9418;52.694;13.294;2023-02-15T04:17:25;33.20;;;22.83;;
18576;SDS011;9418;52.694;13.294;2023-02-15T04:19:52;31.10;;;23.40;;
18576;SDS011;9418;52.694;13.294;2023-02-15T04:22:38;31.07;;;23.17;;
18576;SDS011;9418;52.694;13.294;2023-02-15T04:25:22;31.37;;;23.70;;
18576;SDS011;9418;52.694;13.294;2023-02-15T04:27:49;32.37;;;24.90;;
18576;SDS011;9418;52.694;13.294;2023-02-15T04:30:18;30.40;;;23.10;;
18576;SDS011;9418;52.694;13.294;2023-02-15T04:32:46;35.93;;;25.00;;
18576;SDS011;9418;52.694;13.294;2023-02-15T04:35:13;34.23;;;26.03;;
18576;SDS011;9418;52.694;13.294;2023-02-15T04:37:42;35.80;;;27.50;;
18576;SDS011;9418;52.694;13.294;2023-02-15T04:40:10;37.10;;;27.77;;
18576;SDS011;9418;52.694;13.294;2023-02-15T04:42:38;42.00;;;30.67;;
18576;SDS011;9418;52.694;13.294;2023-02-15T04:45:05;40.37;;;28.63;;
18576;SDS011;9418;52.694;13.294;2023-02-15T04:47:32;40.43;;;28.73;;
18576;SDS011;9418;52.694;13.294;2023-02-15T04:49:59;41.43;;;28.57;;
18576;SDS011;9418;52.694;13.294;2023-02-15T04:52:26;40.03;;;30.10;;
18576;SDS011;9418;52.694;13.294;2023-02-15T04:54:54;40.13;;;28.90;;
18576;SDS011;9418;52.694;13.294;2023-02-15T04:57:20;44.63;;;31.67;;
18576;SDS011;9418;52.694;13.294;2023-02-15T04:59:47;44.73;;;30.43;;
18576;SDS011;9418;52.694;13.294;2023-02-15T05:02:13;52.37;;;33.40;;
18576;SDS011;9418;52.694;13.294;2023-02-15T05:04:40;43.93;;;31.33;;
18576;SDS011;9418;52.694;13.294;2023-02-15T05:07:07;46.67;;;32.30;;
18576;SDS011;9418;52.694;13.294;2023-02-15T05:09:33;51.13;;;35.10;;
18576;SDS011;9418;52.694;13.294;2023-02-15T05:12:01;49.83;;;34.40;;
18576;SDS011;9418;52.694;13.294;2023-02-15T05:14:28;52.13;;;35.93;;
18576;SDS011;9418;52.694;13.294;2023-02-15T05:16:54;52.10;;;36.80;;
18576;SDS011;9418;52.694;13.294;2023-02-15T05:19:21;55.20;;;38.17;;
18576;SDS011;9418;52.694;13.294;2023-02-15T05:21:49;55.23;;;37.17;;
18576;SDS011;9418;52.694;13.294;2023-02-15T05:24:16;55.43;;;35.17;;
18576;SDS011;9418;52.694;13.294;2023-02-15T05:27:01;53.00;;;35.90;;
18576;SDS011;9418;52.694;13.294;2023-02-15T05:29:46;51.37;;;36.00;;
18576;SDS011;9418;52.694;13.294;2023-02-15T05:32:12;54.63;;;35.67;;
18576;SDS011;9418;52.694;13.294;2023-02-15T05:34:39;55.97;;;37.57;;
18576;SDS011;9418;52.694;13.294;2023-02-15T05:37:06;55.30;;;35.97;;
18576;SDS011;9418;52.694;13.294;2023-02-15T05:39:33;54.60;;;36.37;;
18576;SDS011;9418;52.694;13.294;2023-02-15T05:42:01;58.07;;;38.30;;
18576;SDS011;9418;52.694;13.294;2023-02-15T05:44:28;52.03;;;35.97;;
18576;SDS011;9418;52.694;13.294;2023-02-15T05:46:54;58.40;;;37.17;;
18576;SDS011;9418;52.694;13.294;2023-02-15T05:49:21;53.47;;;35.83;;
18576;SDS011;9418;52.694;13.294;2023-02-15T05:51:48;58.50;;;36.93;;
18576;SDS011;9418;52.694;13.294;2023-02-15T05:54:15;58.17;;;37.00;;
18576;SDS011;9418;52.694;13.294;2023-02-15T05:56:41;54.17;;;35.93;;
18576;SDS011;9418;52.694;13.294;2023-02-15T05:59:09;56.73;;;38.40;;
18576;SDS011;9418;52.694;13.294;2023-02-15T06:01:37;52.77;;;36.00;;
18576;SDS011;9418;52.694;13.294;2023-02-15T06:04:04;58.23;;;36.97;;
18576;SDS011;9418;52.694;13.294;2023-02-15T06:06:30;58.83;;;38.43;;
18576;SDS011;9418;52.694;13.294;2023-02-15T06:08:57;52.20;;;34.93;;
18576;SDS011;9418;52.694;13.294;2023-02-15T06:11:23;54.50;;;35.37;;
18576;SDS011;9418;52.694;13.294;2023-02-15T06:13:50;54.97;;;35.20;;
18576;SDS011;9418;52.694;13.294;2023-02-15T06:16:18;52.03;;;35.00;;
18576;SDS011;9418;52.694;13.294;2023-02-15T06:18:44;51.40;;;34.60;;
18576;SDS011;9418;52.694;13.294;2023-02-15T06:21:11;59.30;;;36.50;;
18576;SDS011;9418;52.694;13.294;2023-02-15T06:23:37;56.60;;;36.30;;
18576;SDS011;9418;52.694;13.294;2023-02-15T06:26:04;54.37;;;36.13;;
18576;SDS011;9418;52.694;13.294;2023-02-15T06:28:31;52.40;;;34.33;;
18576;SDS011;9418;52.694;13.294;2023-02-15T06:30:57;56.50;;;38.10;;
18576;SDS011;9418;52.694;13.294;2023-02-15T06:33:25;57.07;;;36.23;;
18576;SDS011;9418;52.694;13.294;2023-02-15T06:35:51;57.47;;;36.90;;
18576;SDS011;9418;52.694;13.294;2023-02-15T06:38:18;60.83;;;39.50;;
18576;SDS011;9418;52.694;13.294;2023-02-15T06:40:44;53.77;;;35.63;;
18576;SDS011;9418;52.694;13.294;2023-02-15T06:43:11;59.90;;;38.90;;
18576;SDS011;9418;52.694;13.294;2023-02-15T06:45:38;60.23;;;38.53;;
18576;SDS011;9418;52.694;13.294;2023-02-15T06:48:04;55.63;;;36.53;;
18576;SDS011;9418;52.694;13.294;2023-02-15T06:50:33;59.80;;;36.00;;
18576;SDS011;9418;52.694;13.294;2023-02-15T06:53:00;57.33;;;36.43;;
18576;SDS011;9418;52.694;13.294;2023-02-15T06:55:26;60.40;;;37.67;;
18576;SDS011;9418;52.694;13.294;2023-02-15T06:57:53;63.90;;;37.17;;
18576;SDS011;9418;52.694;13.294;2023-02-15T07:00:20;50.77;;;34.77;;
18576;SDS011;9418;52.694;13.294;2023-02-15T07:02:48;60.67;;;35.63;;
18576;SDS011;9418;52.694;13.294;2023-02-15T07:05:20;59.00;;;35.60;;
18576;SDS011;9418;52.694;13.294;2023-02-15T07:07:48;93.67;;;35.53;;
18576;SDS011;9418;52.694;13.294;2023-02-15T07:10:14;136.60;;;33.40;;
18576;SDS011;9418;52.694;13.294;2023-02-15T07:12:41;80.70;;;32.37;;
18576;SDS011;9418;52.694;13.294;2023-02-15T07:15:07;54.20;;;35.80;;
18576;SDS011;9418;52.694;13.294;2023-02-15T07:17:34;61.20;;;35.67;;
18576;SDS011;9418;52.694;13.294;2023-02-15T07:20:01;100.13;;;34.83;;
18576;SDS011;9418;52.694;13.294;2023-02-15T07:22:29;63.07;;;35.20;;
18576;SDS011;9418;52.694;13.294;2023-02-15T07:24:57;58.20;;;33.57;;
18576;SDS011;9418;52.694;13.294;2023-02-15T07:27:23;97.47;;;34.80;;
18576;SDS011;9418;52.694;13.294;2023-02-15T07:29:50;86.67;;;32.77;;
18576;SDS011;9418;52.694;13.294;2023-02-15T07:32:16;75.27;;;33.30;;
18576;SDS011;9418;52.694;13.294;2023-02-15T07:34:43;68.60;;;31.67;;
18576;SDS011;9418;52.694;13.294;2023-02-15T07:37:10;90.07;;;31.57;;
18576;SDS011;9418;52.694;13.294;2023-02-15T07:39:36;79.53;;;32.03;;
18576;SDS011;9418;52.694;13.294;2023-02-15T07:42:04;62.57;;;33.17;;
18576;SDS011;9418;52.694;13.294;2023-02-15T07:44:31;76.83;;;32.83;;
18576;SDS011;9418;52.694;13.294;2023-02-15T07:46:57;76.93;;;35.37;;
18576;SDS011;9418;52.694;13.294;2023-02-15T07:49:24;55.30;;;37.17;;
18576;SDS011;9418;52.694;13.294;2023-02-15T07:51:50;92.50;;;34.13;;
18576;SDS011;9418;52.694;13.294;2023-02-15T07:54:17;63.73;;;35.60;;
18576;SDS011;9418;52.694;13.294;2023-02-15T07:56:44;73.10;;;35.37;;
18576;SDS011;9418;52.694;13.294;2023-02-15T07:59:12;53.07;;;35.00;;
18576;SDS011;9418;52.694;13.294;2023-02-15T08:01:39;58.53;;;34.67;;
18576;SDS011;9418;52.694;13.294;2023-02-15T08:04:06;85.97;;;32.97;;
18576;SDS011;9418;52.694;13.294;2023-02-15T08:06:35;67.60;;;31.20;;
18576;SDS011;9418;52.694;13.294;2023-02-15T08:09:03;91.53;;;33.07;;
18576;SDS011;9418;52.694;13.294;2023-02-15T08:11:31;68.43;;;33.40;;
18576;SDS011;9418;52.694;13.294;2023-02-15T08:14:02;71.93;;;33.70;;
18576;SDS011;9418;52.694;13.294;2023-02-15T08:16:32;73.57;;;31.17;;
18576;SDS011;9418;52.694;13.294;2023-02-15T08:19:01;62.60;;;32.77;;
18576;SDS011;9418;52.694;13.294;2023-02-15T08:21:30;83.00;;;33.70;;
18576;SDS011;9418;52.694;13.294;2023-02-15T08:23:58;87.23;;;32.47;;
18576;SDS011;9418;52.694;13.294;2023-02-15T08:26:26;54.93;;;33.57;;
18576;SDS011;9418;52.694;13.294;2023-02-15T08:28:54;73.83;;;36.20;;
18576;SDS011;9418;52.694;13.294;2023-02-15T08:31:21;110.63;;;35.63;;
18576;SDS011;9418;52.694;13.294;2023-02-15T08:33:50;73.87;;;38.07;;
18576;SDS011;9418;52.694;13.294;2023-02-15T08:36:18;87.80;;;33.83;;
18576;SDS011;9418;52.694;13.294;2023-02-15T08:38:46;97.33;;;34.43;;
18576;SDS011;9418;52.694;13.294;2023-02-15T08:41:14;77.93;;;34.37;;
18576;SDS011;9418;52.694;13.294;2023-02-15T08:43:42;127.00;;;32.83;;
18576;SDS011;9418;52.694;13.294;2023-02-15T08:46:11;96.77;;;35.40;;
18576;SDS011;9418;52.694;13.294;2023-02-15T08:48:39;91.00;;;34.23;;
18576;SDS011;9418;52.694;13.294;2023-02-15T08:51:08;129.53;;;34.57;;
18576;SDS011;9418;52.694;13.294;2023-02-15T08:53:36;110.73;;;34.37;;
18576;SDS011;9418;52.694;13.294;2023-02-15T08:56:04;90.93;;;35.00;;
18576;SDS011;9418;52.694;13.294;2023-02-15T08:58:31;167.07;;;35.80;;
18576;SDS011;9418;52.694;13.294;2023-02-15T09:00:58;85.07;;;36.00;;
18576;SDS011;9418;52.694;13.294;2023-02-15T09:03:26;126.37;;;36.03;;
18576;SDS011;9418;52.694;13.294;2023-02-15T09:05:56;111.47;;;39.43;;
18576;SDS011;9418;52.694;13.294;2023-02-15T09:08:25;92.97;;;36.47;;
18576;SDS011;9418;52.694;13.294;2023-02-15T09:10:52;94.87;;;39.87;;
18576;SDS011;9418;52.694;13.294;2023-02-15T09:13:19;80.90;;;42.83;;
18576;SDS011;9418;52.694;13.294;2023-02-15T09:15:46;90.17;;;39.10;;
18576;SDS011;9418;52.694;13.294;2023-02-15T09:18:12;83.23;;;44.10;;
18576;SDS011;9418;52.694;13.294;2023-02-15T09:20:41;78.40;;;40.77;;
18576;SDS011;9418;52.694;13.294;2023-02-15T09:23:09;80.63;;;41.47;;
18576;SDS011;9418;52.694;13.294;2023-02-15T09:25:36;90.83;;;41.93;;
18576;SDS011;9418;52.694;13.294;2023-02-15T09:28:03;97.23;;;42.27;;
18576;SDS011;9418;52.694;13.294;2023-02-15T09:30:30;86.90;;;44.03;;
18576;SDS011;9418;52.694;13.294;2023-02-15T09:32:56;79.60;;;44.47;;
18576;SDS011;9418;52.694;13.294;2023-02-15T09:35:23;78.43;;;43.30;;
18576;SDS011;9418;52.694;13.294;2023-02-15T09:37:49;85.70;;;46.60;;
18576;SDS011;9418;52.694;13.294;2023-02-15T09:40:16;84.27;;;46.87;;
18576;SDS011;9418;52.694;13.294;2023-02-15T09:45:44;85.27;;;44.80;;
18576;SDS011;9418;52.694;13.294;2023-02-15T09:48:35;92.30;;;46.13;;
18576;SDS011;9418;52.694;13.294;2023-02-15T09:51:14;85.80;;;46.13;;
18576;SDS011;9418;52.694;13.294;2023-02-15T09:54:04;85.33;;;48.00;;
18576;SDS011;9418;52.694;13.294;2023-02-15T09:56:42;89.03;;;47.13;;
18576;SDS011;9418;52.694;13.294;2023-02-15T09:59:18;88.97;;;46.40;;
18576;SDS011;9418;52.694;13.294;2023-02-15T10:01:53;82.07;;;47.40;;
18576;SDS011;9418;52.694;13.294;2023-02-15T10:04:34;86.07;;;48.20;;
18576;SDS011;9418;52.694;13.294;2023-02-15T10:07:13;95.33;;;49.27;;
18576;SDS011;9418;52.694;13.294;2023-02-15T10:09:51;85.37;;;46.40;;
18576;SDS011;9418;52.694;13.294;2023-02-15T10:12:32;87.57;;;47.03;;
18576;SDS011;9418;52.694;13.294;2023-02-15T10:15:29;89.97;;;49.23;;
18576;SDS011;9418;52.694;13.294;2023-02-15T10:18:17;85.53;;;48.00;;
18576;SDS011;9418;52.694;13.294;2023-02-15T10:20:55;81.63;;;45.53;;
18576;SDS011;9418;52.694;13.294;2023-02-15T10:23:36;102.53;;;48.37;;
18576;SDS011;9418;52.694;13.294;2023-02-15T10:26:18;84.70;;;47.50;;
18576;SDS011;9418;52.694;13.294;2023-02-15T10:28:48;80.23;;;44.53;;
18576;SDS011;9418;52.694;13.294;2023-02-15T10:31:22;79.27;;;44.50;;
18576;SDS011;9418;52.694;13.294;2023-02-15T10:33:54;85.23;;;47.40;;
18576;SDS011;9418;52.694;13.294;2023-02-15T10:36:42;73.87;;;41.73;;
18576;SDS011;9418;52.694;13.294;2023-02-15T10:39:30;66.63;;;39.90;;
18576;SDS011;9418;52.694;13.294;2023-02-15T10:42:07;65.87;;;39.40;;
18576;SDS011;9418;52.694;13.294;2023-02-15T10:44:45;67.80;;;40.30;;
18576;SDS011;9418;52.694;13.294;2023-02-15T10:47:40;67.17;;;40.13;;
18576;SDS011;9418;52.694;13.294;2023-02-15T10:50:19;77.93;;;42.33;;
18576;SDS011;9418;52.694;13.294;2023-02-15T10:53:04;56.83;;;36.93;;
18576;SDS011;9418;52.694;13.294;2023-02-15T10:55:46;72.93;;;42.40;;
18576;SDS011;9418;52.694;13.294;2023-02-15T10:58:24;87.47;;;42.70;;
18576;SDS011;9418;52.694;13.294;2023-02-15T11:01:01;63.90;;;41.70;;
18576;SDS011;9418;52.694;13.294;2023-02-15T11:03:43;68.83;;;43.43;;
18576;SDS011;9418;52.694;13.294;2023-02-15T11:06:31;77.47;;;44.67;;
18576;SDS011;9418;52.694;13.294;2023-02-15T11:09:01;69.60;;;42.67;;
18576;SDS011;9418;52.694;13.294;2023-02-15T11:11:31;59.47;;;36.93;;
18576;SDS011;9418;52.694;13.294;2023-02-15T11:14:01;68.43;;;41.37;;
18576;SDS011;9418;52.694;13.294;2023-02-15T11:16:40;64.50;;;38.47;;
18576;SDS011;9418;52.694;13.294;2023-02-15T11:19:12;65.60;;;40.73;;
18576;SDS011;9418;52.694;13.294;2023-02-15T11:21:45;70.63;;;41.67;;
18576;SDS011;9418;52.694;13.294;2023-02-15T11:24:16;64.50;;;40.73;;
18576;SDS011;9418;52.694;13.294;2023-02-15T11:26:45;60.57;;;37.17;;
18576;SDS011;9418;52.694;13.294;2023-02-15T11:29:17;58.47;;;36.90;;
18576;SDS011;9418;52.694;13.294;2023-02-15T11:31:50;62.83;;;39.17;;
18576;SDS011;9418;52.694;13.294;2023-02-15T11:34:22;57.83;;;36.53;;
18576;SDS011;9418;52.694;13.294;2023-02-15T11:36:55;54.73;;;36.70;;
18576;SDS011;9418;52.694;13.294;2023-02-15T11:39:27;59.47;;;36.43;;
18576;SDS011;9418;52.694;13.294;2023-02-15T11:41:57;64.93;;;35.37;;
18576;SDS011;9418;52.694;13.294;2023-02-15T11:44:27;56.40;;;35.50;;
18576;SDS011;9418;52.694;13.294;2023-02-15T11:46:58;56.37;;;36.63;;
18576;SDS011;9418;52.694;13.294;2023-02-15T11:49:29;54.73;;;35.03;;
18576;SDS011;9418;52.694;13.294;2023-02-15T11:51:58;57.40;;;38.30;;
18576;SDS011;9418;52.694;13.294;2023-02-15T11:54:28;70.50;;;40.67;;
18576;SDS011;9418;52.694;13.294;2023-02-15T11:56:59;63.03;;;38.57;;
18576;SDS011;9418;52.694;13.294;2023-02-15T11:59:36;55.50;;;37.17;;
18576;SDS011;9418;52.694;13.294;2023-02-15T12:02:10;61.40;;;36.70;;
18576;SDS011;9418;52.694;13.294;2023-02-15T12:04:44;52.67;;;36.23;;
18576;SDS011;9418;52.694;13.294;2023-02-15T12:07:16;55.43;;;37.40;;
18576;SDS011;9418;52.694;13.294;2023-02-15T12:09:48;61.20;;;36.73;;
18576;SDS011;9418;52.694;13.294;2023-02-15T12:12:22;57.27;;;36.50;;
18576;SDS011;9418;52.694;13.294;2023-02-15T12:14:51;42.20;;;29.87;;
18576;SDS011;9418;52.694;13.294;2023-02-15T12:17:20;51.10;;;31.90;;
18576;SDS011;9418;52.694;13.294;2023-02-15T12:19:50;46.63;;;30.70;;
18576;SDS011;9418;52.694;13.294;2023-02-15T12:22:20;55.83;;;28.40;;
18576;SDS011;9418;52.694;13.294;2023-02-15T12:24:50;45.03;;;26.80;;
18576;SDS011;9418;52.694;13.294;2023-02-15T12:27:19;30.83;;;22.80;;
18576;SDS011;9418;52.694;13.294;2023-02-15T12:29:50;34.80;;;24.63;;
18576;SDS011;9418;52.694;13.294;2023-02-15T12:32:21;36.10;;;24.30;;
18576;SDS011;9418;52.694;13.294;2023-02-15T12:34:51;37.37;;;25.10;;
18576;SDS011;9418;52.694;13.294;2023-02-15T12:37:25;33.30;;;22.93;;
18576;SDS011;9418;52.694;13.294;2023-02-15T12:39:54;32.90;;;21.53;;
18576;SDS011;9418;52.694;13.294;2023-02-15T12:42:22;31.53;;;21.77;;
18576;SDS011;9418;52.694;13.294;2023-02-15T12:44:57;37.80;;;25.40;;
18576;SDS011;9418;52.694;13.294;2023-02-15T12:47:26;36.30;;;24.60;;
18576;SDS011;9418;52.694;13.294;2023-02-15T12:50:05;37.80;;;25.70;;
18576;SDS011;9418;52.694;13.294;2023-02-15T12:52:41;37.30;;;25.97;;
18576;SDS011;9418;52.694;13.294;2023-02-15T12:55:17;45.47;;;24.30;;
18576;SDS011;9418;52.694;13.294;2023-02-15T12:57:46;23.30;;;18.17;;
18576;SDS011;9418;52.694;13.294;2023-02-15T13:00:26;24.50;;;16.67;;
18576;SDS011;9418;52.694;13.294;2023-02-15T13:02:56;19.40;;;15.20;;
18576;SDS011;9418;52.694;13.294;2023-02-15T13:05:26;21.23;;;16.53;;
18576;SDS011;9418;52.694;13.294;2023-02-15T13:07:58;19.70;;;15.50;;
18576;SDS011;9418;52.694;13.294;2023-02-15T13:10:28;22.03;;;15.90;;
18576;SDS011;9418;52.694;13.294;2023-02-15T13:12:56;16.67;;;14.37;;
18576;SDS011;9418;52.694;13.294;2023-02-15T13:15:25;21.67;;;16.30;;
18576;SDS011;9418;52.694;13.294;2023-02-15T13:17:55;27.47;;;15.43;;
18576;SDS011;9418;52.694;13.294;2023-02-15T13:20:22;20.20;;;15.60;;
18576;SDS011;9418;52.694;13.294;2023-02-15T13:22:50;24.77;;;16.33;;
18576;SDS011;9418;52.694;13.294;2023-02-15T13:25:20;22.33;;;16.70;;
18576;SDS011;9418;52.694;13.294;2023-02-15T13:27:50;24.43;;;16.77;;
18576;SDS011;9418;52.694;13.294;2023-02-15T13:30:22;22.20;;;15.53;;
18576;SDS011;9418;52.694;13.294;2023-02-15T13:32:52;23.00;;;16.50;;
18576;SDS011;9418;52.694;13.294;2023-02-15T13:35:21;36.43;;;22.00;;
18576;SDS011;9418;52.694;13.294;2023-02-15T13:37:53;33.37;;;22.40;;
18576;SDS011;9418;52.694;13.294;2023-02-15T13:40:44;33.53;;;22.70;;
18576;SDS011;9418;52.694;13.294;2023-02-15T13:46:12;32.93;;;23.90;;
18576;SDS011;9418;52.694;13.294;2023-02-15T13:48:49;30.93;;;23.27;;
18576;SDS011;9418;52.694;13.294;2023-02-15T13:51:27;29.60;;;21.17;;
18576;SDS011;9418;52.694;13.294;2023-02-15T13:54:13;32.50;;;23.50;;
18576;SDS011;9418;52.694;13.294;2023-02-15T13:56:55;30.63;;;25.50;;
18576;SDS011;9418;52.694;13.294;2023-02-15T13:59:38;38.30;;;25.43;;
18576;SDS011;9418;52.694;13.294;2023-02-15T14:02:23;33.93;;;26.77;;
18576;SDS011;9418;52.694;13.294;2023-02-15T14:08:01;34.90;;;25.57;;
18576;SDS011;9418;52.694;13.294;2023-02-15T14:16:27;30.97;;;24.20;;
18576;SDS011;9418;52.694;13.294;2023-02-15T14:19:04;35.23;;;25.57;;
18576;SDS011;9418;52.694;13.294;2023-02-15T14:21:39;35.43;;;24.97;;
18576;SDS011;9418;52.694;13.294;2023-02-15T14:24:17;35.03;;;25.03;;
18576;SDS011;9418;52.694;13.294;2023-02-15T14:26:52;30.23;;;21.67;;
18576;SDS011;9418;52.694;13.294;2023-02-15T14:29:29;30.63;;;22.20;;
18576;SDS011;9418;52.694;13.294;2023-02-15T14:32:08;31.00;;;23.50;;
18576;SDS011;9418;52.694;13.294;2023-02-15T14:34:40;35.30;;;21.30;;
18576;SDS011;9418;52.694;13.294;2023-02-15T14:37:12;24.13;;;17.90;;
18576;SDS011;9418;52.694;13.294;2023-02-15T14:39:43;24.77;;;19.43;;
18576;SDS011;9418;52.694;13.294;2023-02-15T14:42:38;24.60;;;17.13;;
18576;SDS011;9418;52.694;13.294;2023-02-15T14:45:15;24.23;;;17.97;;
18576;SDS011;9418;52.694;13.294;2023-02-15T14:47:46;21.57;;;16.53;;
18576;SDS011;9418;52.694;13.294;2023-02-15T14:50:38;24.37;;;18.20;;
18576;SDS011;9418;52.694;13.294;2023-02-15T14:53:16;25.47;;;18.00;;
18576;SDS011;9418;52.694;13.294;2023-02-15T14:59:01;32.80;;;18.73;;
18576;SDS011;9418;52.694;13.294;2023-02-15T15:01:41;22.60;;;17.53;;
18576;SDS011;9418;52.694;13.294;2023-02-15T15:04:21;22.57;;;18.13;;